sensor_id;sensor_type;location;lat;lon;timestamp;P1;durP1;ratioP1;P2;durP2;ratioP2
45944;SDS011;31655;48.972;10.686;2023-05-07T00:01:38;3.03;;;2.72;;
45944;SDS011;31655;48.972;10.686;2023-05-07T00:04:04;7.05;;;2.38;;
45944;SDS011;31655;48.972;10.686;2023-05-07T00:06:31;2.53;;;2.00;;
45944;SDS011;31655;48.972;10.686;2023-05-07T00:08:57;5.45;;;2.13;;
45944;SDS011;31655;48.972;10.686;2023-05-07T00:11:23;4.03;;;2.50;;
45944;SDS011;31655;48.972;10.686;2023-05-07T00:13:49;2.60;;;2.20;;
45944;SDS011;31655;48.972;10.686;2023-05-07T00:16:15;8.23;;;2.28;;
45944;SDS011;31655;48.972;10.686;2023-05-07T00:18:40;4.53;;;2.00;;
45944;SDS011;31655;48.972;10.686;2023-05-07T00:21:06;4.13;;;2.00;;
45944;SDS011;31655;48.972;10.686;2023-05-07T00:23:32;3.92;;;2.03;;
45944;SDS011;31655;48.972;10.686;2023-05-07T00:25:58;11.27;;;2.80;;
45944;SDS011;31655;48.972;10.686;2023-05-07T00:28:23;6.75;;;2.85;;
45944;SDS011;31655;48.972;10.686;2023-05-07T00:30:49;4.90;;;2.60;;
45944;SDS011;31655;48.972;10.686;2023-05-07T00:33:15;3.35;;;2.65;;
45944;SDS011;31655;48.972;10.686;2023-05-07T00:35:42;4.68;;;2.80;;
45944;SDS011;31655;48.972;10.686;2023-05-07T00:38:08;3.33;;;2.67;;
45944;SDS011;31655;48.972;10.686;2023-05-07T00:40:33;4.43;;;2.70;;
45944;SDS011;31655;48.972;10.686;2023-05-07T00:42:59;4.20;;;2.65;;
45944;SDS011;31655;48.972;10.686;2023-05-07T00:45:26;4.25;;;2.78;;
45944;SDS011;31655;48.972;10.686;2023-05-07T00:47:55;3.88;;;2.90;;
45944;SDS011;31655;48.972;10.686;2023-05-07T00:50:23;2.47;;;2.25;;
45944;SDS011;31655;48.972;10.686;2023-05-07T00:52:49;3.67;;;2.35;;
45944;SDS011;31655;48.972;10.686;2023-05-07T00:55:15;2.53;;;2.20;;
45944;SDS011;31655;48.972;10.686;2023-05-07T00:57:41;3.67;;;2.40;;
45944;SDS011;31655;48.972;10.686;2023-05-07T01:00:08;2.97;;;2.22;;
45944;SDS011;31655;48.972;10.686;2023-05-07T01:02:35;2.30;;;2.10;;
45944;SDS011;31655;48.972;10.686;2023-05-07T01:05:01;4.13;;;1.95;;
45944;SDS011;31655;48.972;10.686;2023-05-07T01:07:28;6.82;;;2.22;;
45944;SDS011;31655;48.972;10.686;2023-05-07T01:09:54;3.97;;;2.22;;
45944;SDS011;31655;48.972;10.686;2023-05-07T01:12:20;5.05;;;2.78;;
45944;SDS011;31655;48.972;10.686;2023-05-07T01:14:46;5.45;;;3.40;;
45944;SDS011;31655;48.972;10.686;2023-05-07T01:17:14;5.22;;;2.90;;
45944;SDS011;31655;48.972;10.686;2023-05-07T01:19:40;8.82;;;3.35;;
45944;SDS011;31655;48.972;10.686;2023-05-07T01:22:09;4.55;;;2.40;;
45944;SDS011;31655;48.972;10.686;2023-05-07T01:24:37;6.70;;;2.40;;
45944;SDS011;31655;48.972;10.686;2023-05-07T01:27:03;4.18;;;2.15;;
45944;SDS011;31655;48.972;10.686;2023-05-07T01:29:28;8.07;;;3.30;;
45944;SDS011;31655;48.972;10.686;2023-05-07T01:31:56;5.03;;;3.13;;
45944;SDS011;31655;48.972;10.686;2023-05-07T01:34:24;18.40;;;9.10;;
45944;SDS011;31655;48.972;10.686;2023-05-07T01:36:52;9.35;;;5.53;;
45944;SDS011;31655;48.972;10.686;2023-05-07T01:39:18;6.55;;;4.13;;
45944;SDS011;31655;48.972;10.686;2023-05-07T01:41:44;2.72;;;2.10;;
45944;SDS011;31655;48.972;10.686;2023-05-07T01:44:10;6.40;;;2.20;;
45944;SDS011;31655;48.972;10.686;2023-05-07T01:46:38;3.90;;;2.30;;
45944;SDS011;31655;48.972;10.686;2023-05-07T01:49:03;4.55;;;2.88;;
45944;SDS011;31655;48.972;10.686;2023-05-07T01:51:29;4.63;;;2.70;;
45944;SDS011;31655;48.972;10.686;2023-05-07T01:53:56;5.82;;;3.70;;
45944;SDS011;31655;48.972;10.686;2023-05-07T01:56:23;3.15;;;2.25;;
45944;SDS011;31655;48.972;10.686;2023-05-07T01:58:49;5.88;;;3.00;;
45944;SDS011;31655;48.972;10.686;2023-05-07T02:01:16;5.72;;;2.75;;
45944;SDS011;31655;48.972;10.686;2023-05-07T02:03:42;7.60;;;3.60;;
45944;SDS011;31655;48.972;10.686;2023-05-07T02:06:08;4.13;;;2.85;;
45944;SDS011;31655;48.972;10.686;2023-05-07T02:08:34;8.68;;;4.53;;
45944;SDS011;31655;48.972;10.686;2023-05-07T02:11:00;4.35;;;2.47;;
45944;SDS011;31655;48.972;10.686;2023-05-07T02:13:28;4.53;;;2.22;;
45944;SDS011;31655;48.972;10.686;2023-05-07T02:15:55;6.75;;;3.00;;
45944;SDS011;31655;48.972;10.686;2023-05-07T02:18:21;3.95;;;2.85;;
45944;SDS011;31655;48.972;10.686;2023-05-07T02:20:47;10.15;;;4.70;;
45944;SDS011;31655;48.972;10.686;2023-05-07T02:23:13;10.60;;;4.68;;
45944;SDS011;31655;48.972;10.686;2023-05-07T02:25:39;4.93;;;3.60;;
45944;SDS011;31655;48.972;10.686;2023-05-07T02:28:04;3.90;;;3.08;;
45944;SDS011;31655;48.972;10.686;2023-05-07T02:30:31;10.32;;;5.45;;
45944;SDS011;31655;48.972;10.686;2023-05-07T02:32:57;19.83;;;8.80;;
45944;SDS011;31655;48.972;10.686;2023-05-07T02:35:24;12.80;;;4.70;;
45944;SDS011;31655;48.972;10.686;2023-05-07T02:37:50;10.95;;;5.63;;
45944;SDS011;31655;48.972;10.686;2023-05-07T02:40:15;7.97;;;4.28;;
45944;SDS011;31655;48.972;10.686;2023-05-07T02:42:41;6.63;;;4.45;;
45944;SDS011;31655;48.972;10.686;2023-05-07T02:45:07;6.60;;;5.00;;
45944;SDS011;31655;48.972;10.686;2023-05-07T02:47:33;5.07;;;3.28;;
45944;SDS011;31655;48.972;10.686;2023-05-07T02:49:59;6.18;;;3.47;;
45944;SDS011;31655;48.972;10.686;2023-05-07T02:52:25;6.70;;;2.88;;
45944;SDS011;31655;48.972;10.686;2023-05-07T02:54:50;3.03;;;2.67;;
45944;SDS011;31655;48.972;10.686;2023-05-07T02:57:16;5.82;;;3.40;;
45944;SDS011;31655;48.972;10.686;2023-05-07T02:59:42;13.35;;;6.18;;
45944;SDS011;31655;48.972;10.686;2023-05-07T03:02:08;9.60;;;3.75;;
45944;SDS011;31655;48.972;10.686;2023-05-07T03:04:34;4.22;;;2.53;;
45944;SDS011;31655;48.972;10.686;2023-05-07T03:07:00;4.38;;;2.95;;
45944;SDS011;31655;48.972;10.686;2023-05-07T03:09:26;3.50;;;3.00;;
45944;SDS011;31655;48.972;10.686;2023-05-07T03:11:52;4.22;;;3.00;;
45944;SDS011;31655;48.972;10.686;2023-05-07T03:14:18;3.40;;;2.90;;
45944;SDS011;31655;48.972;10.686;2023-05-07T03:16:44;10.65;;;3.67;;
45944;SDS011;31655;48.972;10.686;2023-05-07T03:19:10;5.07;;;3.10;;
45944;SDS011;31655;48.972;10.686;2023-05-07T03:21:35;4.40;;;3.65;;
45944;SDS011;31655;48.972;10.686;2023-05-07T03:24:01;8.40;;;3.35;;
45944;SDS011;31655;48.972;10.686;2023-05-07T03:26:27;5.00;;;3.50;;
45944;SDS011;31655;48.972;10.686;2023-05-07T03:28:53;4.03;;;2.95;;
45944;SDS011;31655;48.972;10.686;2023-05-07T03:31:18;4.10;;;3.00;;
45944;SDS011;31655;48.972;10.686;2023-05-07T03:33:54;3.55;;;3.03;;
45944;SDS011;31655;48.972;10.686;2023-05-07T03:36:21;4.38;;;3.22;;
45944;SDS011;31655;48.972;10.686;2023-05-07T03:38:47;8.02;;;4.28;;
45944;SDS011;31655;48.972;10.686;2023-05-07T03:41:13;4.93;;;3.42;;
45944;SDS011;31655;48.972;10.686;2023-05-07T03:43:39;4.32;;;3.13;;
45944;SDS011;31655;48.972;10.686;2023-05-07T03:46:05;4.45;;;3.20;;
45944;SDS011;31655;48.972;10.686;2023-05-07T03:48:31;3.80;;;3.00;;
45944;SDS011;31655;48.972;10.686;2023-05-07T03:50:57;5.20;;;3.35;;
45944;SDS011;31655;48.972;10.686;2023-05-07T03:53:23;3.45;;;2.85;;
45944;SDS011;31655;48.972;10.686;2023-05-07T03:55:49;4.03;;;3.45;;
45944;SDS011;31655;48.972;10.686;2023-05-07T03:58:15;10.48;;;4.00;;
45944;SDS011;31655;48.972;10.686;2023-05-07T04:00:41;4.45;;;3.80;;
45944;SDS011;31655;48.972;10.686;2023-05-07T04:03:07;5.32;;;3.42;;
45944;SDS011;31655;48.972;10.686;2023-05-07T04:05:33;4.35;;;2.83;;
45944;SDS011;31655;48.972;10.686;2023-05-07T04:07:59;3.72;;;3.42;;
45944;SDS011;31655;48.972;10.686;2023-05-07T04:10:25;6.75;;;3.22;;
45944;SDS011;31655;48.972;10.686;2023-05-07T04:12:50;5.90;;;3.60;;
45944;SDS011;31655;48.972;10.686;2023-05-07T04:15:16;6.53;;;3.85;;
45944;SDS011;31655;48.972;10.686;2023-05-07T04:17:42;5.07;;;3.70;;
45944;SDS011;31655;48.972;10.686;2023-05-07T04:20:15;4.72;;;4.00;;
45944;SDS011;31655;48.972;10.686;2023-05-07T04:22:44;3.97;;;3.22;;
45944;SDS011;31655;48.972;10.686;2023-05-07T04:25:10;4.65;;;4.03;;
45944;SDS011;31655;48.972;10.686;2023-05-07T04:27:35;7.80;;;5.32;;
45944;SDS011;31655;48.972;10.686;2023-05-07T04:30:03;7.35;;;5.22;;
45944;SDS011;31655;48.972;10.686;2023-05-07T04:32:29;12.25;;;6.25;;
45944;SDS011;31655;48.972;10.686;2023-05-07T04:34:55;15.77;;;7.03;;
45944;SDS011;31655;48.972;10.686;2023-05-07T04:37:21;6.53;;;3.40;;
45944;SDS011;31655;48.972;10.686;2023-05-07T04:39:48;3.72;;;3.03;;
45944;SDS011;31655;48.972;10.686;2023-05-07T04:42:15;7.22;;;3.30;;
45944;SDS011;31655;48.972;10.686;2023-05-07T04:44:41;5.90;;;3.83;;
45944;SDS011;31655;48.972;10.686;2023-05-07T04:47:07;6.65;;;3.92;;
45944;SDS011;31655;48.972;10.686;2023-05-07T04:49:33;8.35;;;3.60;;
45944;SDS011;31655;48.972;10.686;2023-05-07T04:51:58;4.95;;;3.00;;
45944;SDS011;31655;48.972;10.686;2023-05-07T04:54:24;5.28;;;3.50;;
45944;SDS011;31655;48.972;10.686;2023-05-07T04:56:51;3.72;;;3.10;;
45944;SDS011;31655;48.972;10.686;2023-05-07T04:59:17;4.20;;;2.58;;
45944;SDS011;31655;48.972;10.686;2023-05-07T05:01:43;4.57;;;3.00;;
45944;SDS011;31655;48.972;10.686;2023-05-07T05:04:08;5.90;;;3.60;;
45944;SDS011;31655;48.972;10.686;2023-05-07T05:06:35;3.67;;;3.10;;
45944;SDS011;31655;48.972;10.686;2023-05-07T05:09:01;4.93;;;2.95;;
45944;SDS011;31655;48.972;10.686;2023-05-07T05:11:26;4.45;;;3.45;;
45944;SDS011;31655;48.972;10.686;2023-05-07T05:13:52;5.85;;;3.38;;
45944;SDS011;31655;48.972;10.686;2023-05-07T05:16:18;3.45;;;2.90;;
45944;SDS011;31655;48.972;10.686;2023-05-07T05:18:44;5.53;;;3.45;;
45944;SDS011;31655;48.972;10.686;2023-05-07T05:21:10;5.13;;;4.00;;
45944;SDS011;31655;48.972;10.686;2023-05-07T05:23:36;3.95;;;3.30;;
45944;SDS011;31655;48.972;10.686;2023-05-07T05:26:02;5.05;;;3.33;;
45944;SDS011;31655;48.972;10.686;2023-05-07T05:28:28;3.15;;;2.83;;
45944;SDS011;31655;48.972;10.686;2023-05-07T05:30:53;3.33;;;2.95;;
45944;SDS011;31655;48.972;10.686;2023-05-07T05:33:19;3.33;;;2.60;;
45944;SDS011;31655;48.972;10.686;2023-05-07T05:35:45;3.53;;;2.72;;
45944;SDS011;31655;48.972;10.686;2023-05-07T05:38:11;3.45;;;2.85;;
45944;SDS011;31655;48.972;10.686;2023-05-07T05:40:37;10.07;;;4.22;;
45944;SDS011;31655;48.972;10.686;2023-05-07T05:43:03;4.68;;;2.67;;
45944;SDS011;31655;48.972;10.686;2023-05-07T05:45:28;3.45;;;2.45;;
45944;SDS011;31655;48.972;10.686;2023-05-07T05:47:55;4.97;;;3.17;;
45944;SDS011;31655;48.972;10.686;2023-05-07T05:50:21;3.70;;;2.40;;
45944;SDS011;31655;48.972;10.686;2023-05-07T05:52:47;3.20;;;2.70;;
45944;SDS011;31655;48.972;10.686;2023-05-07T05:55:13;4.57;;;3.17;;
45944;SDS011;31655;48.972;10.686;2023-05-07T05:57:40;3.40;;;2.85;;
45944;SDS011;31655;48.972;10.686;2023-05-07T06:00:06;4.47;;;2.80;;
45944;SDS011;31655;48.972;10.686;2023-05-07T06:02:33;6.55;;;3.05;;
45944;SDS011;31655;48.972;10.686;2023-05-07T06:04:58;6.65;;;2.92;;
45944;SDS011;31655;48.972;10.686;2023-05-07T06:07:24;2.90;;;2.60;;
45944;SDS011;31655;48.972;10.686;2023-05-07T06:09:50;3.03;;;2.58;;
45944;SDS011;31655;48.972;10.686;2023-05-07T06:12:16;2.58;;;2.28;;
45944;SDS011;31655;48.972;10.686;2023-05-07T06:14:45;4.07;;;2.10;;
45944;SDS011;31655;48.972;10.686;2023-05-07T06:17:10;5.60;;;2.97;;
45944;SDS011;31655;48.972;10.686;2023-05-07T06:19:36;4.43;;;2.90;;
45944;SDS011;31655;48.972;10.686;2023-05-07T06:22:01;4.78;;;3.25;;
45944;SDS011;31655;48.972;10.686;2023-05-07T06:24:27;2.92;;;2.72;;
45944;SDS011;31655;48.972;10.686;2023-05-07T06:26:53;3.70;;;2.70;;
45944;SDS011;31655;48.972;10.686;2023-05-07T06:29:19;3.60;;;2.70;;
45944;SDS011;31655;48.972;10.686;2023-05-07T06:31:45;3.25;;;2.50;;
45944;SDS011;31655;48.972;10.686;2023-05-07T06:34:11;3.10;;;2.60;;
45944;SDS011;31655;48.972;10.686;2023-05-07T06:36:39;4.88;;;2.63;;
45944;SDS011;31655;48.972;10.686;2023-05-07T06:39:05;5.75;;;3.30;;
45944;SDS011;31655;48.972;10.686;2023-05-07T06:41:31;3.60;;;3.22;;
45944;SDS011;31655;48.972;10.686;2023-05-07T06:43:57;4.55;;;3.17;;
45944;SDS011;31655;48.972;10.686;2023-05-07T06:46:23;5.05;;;3.25;;
45944;SDS011;31655;48.972;10.686;2023-05-07T06:48:49;4.43;;;3.03;;
45944;SDS011;31655;48.972;10.686;2023-05-07T06:51:15;3.88;;;3.47;;
45944;SDS011;31655;48.972;10.686;2023-05-07T06:53:40;5.10;;;3.17;;
45944;SDS011;31655;48.972;10.686;2023-05-07T06:56:06;3.45;;;2.95;;
45944;SDS011;31655;48.972;10.686;2023-05-07T06:58:32;3.72;;;2.95;;
45944;SDS011;31655;48.972;10.686;2023-05-07T07:00:59;6.95;;;5.07;;
45944;SDS011;31655;48.972;10.686;2023-05-07T07:03:25;10.23;;;6.00;;
45944;SDS011;31655;48.972;10.686;2023-05-07T07:05:51;9.05;;;5.30;;
45944;SDS011;31655;48.972;10.686;2023-05-07T07:08:18;4.63;;;3.90;;
45944;SDS011;31655;48.972;10.686;2023-05-07T07:10:46;6.78;;;4.20;;
45944;SDS011;31655;48.972;10.686;2023-05-07T07:13:12;4.75;;;3.60;;
45944;SDS011;31655;48.972;10.686;2023-05-07T07:15:38;2.65;;;2.42;;
45944;SDS011;31655;48.972;10.686;2023-05-07T07:18:04;3.15;;;2.85;;
45944;SDS011;31655;48.972;10.686;2023-05-07T07:20:29;2.63;;;2.42;;
45944;SDS011;31655;48.972;10.686;2023-05-07T07:22:55;3.45;;;2.92;;
45944;SDS011;31655;48.972;10.686;2023-05-07T07:25:20;3.35;;;2.17;;
45944;SDS011;31655;48.972;10.686;2023-05-07T07:27:46;5.13;;;3.10;;
45944;SDS011;31655;48.972;10.686;2023-05-07T07:30:11;4.45;;;2.60;;
45944;SDS011;31655;48.972;10.686;2023-05-07T07:32:37;4.32;;;3.58;;
45944;SDS011;31655;48.972;10.686;2023-05-07T07:35:03;3.00;;;2.47;;
45944;SDS011;31655;48.972;10.686;2023-05-07T07:37:29;3.05;;;2.70;;
45944;SDS011;31655;48.972;10.686;2023-05-07T07:39:55;6.45;;;2.90;;
45944;SDS011;31655;48.972;10.686;2023-05-07T07:42:20;5.20;;;3.00;;
45944;SDS011;31655;48.972;10.686;2023-05-07T07:44:46;4.43;;;2.42;;
45944;SDS011;31655;48.972;10.686;2023-05-07T07:47:12;2.83;;;2.58;;
45944;SDS011;31655;48.972;10.686;2023-05-07T07:49:37;3.33;;;2.97;;
45944;SDS011;31655;48.972;10.686;2023-05-07T07:52:04;6.18;;;2.95;;
45944;SDS011;31655;48.972;10.686;2023-05-07T07:54:30;4.28;;;2.45;;
45944;SDS011;31655;48.972;10.686;2023-05-07T07:56:55;6.22;;;3.22;;
45944;SDS011;31655;48.972;10.686;2023-05-07T07:59:21;6.57;;;3.35;;
45944;SDS011;31655;48.972;10.686;2023-05-07T08:01:47;4.97;;;2.72;;
45944;SDS011;31655;48.972;10.686;2023-05-07T08:04:15;3.88;;;2.13;;
45944;SDS011;31655;48.972;10.686;2023-05-07T08:06:40;6.50;;;2.92;;
45944;SDS011;31655;48.972;10.686;2023-05-07T08:09:07;1.92;;;1.67;;
45944;SDS011;31655;48.972;10.686;2023-05-07T08:11:33;2.25;;;1.80;;
45944;SDS011;31655;48.972;10.686;2023-05-07T08:13:58;5.03;;;2.03;;
45944;SDS011;31655;48.972;10.686;2023-05-07T08:16:24;3.33;;;1.88;;
45944;SDS011;31655;48.972;10.686;2023-05-07T08:18:50;2.40;;;2.20;;
45944;SDS011;31655;48.972;10.686;2023-05-07T08:21:16;5.75;;;2.20;;
45944;SDS011;31655;48.972;10.686;2023-05-07T08:23:42;3.80;;;1.70;;
45944;SDS011;31655;48.972;10.686;2023-05-07T08:26:08;4.53;;;2.20;;
45944;SDS011;31655;48.972;10.686;2023-05-07T08:28:34;3.13;;;2.28;;
45944;SDS011;31655;48.972;10.686;2023-05-07T08:31:00;3.30;;;2.05;;
45944;SDS011;31655;48.972;10.686;2023-05-07T08:33:26;4.50;;;2.42;;
45944;SDS011;31655;48.972;10.686;2023-05-07T08:35:52;2.97;;;1.98;;
45944;SDS011;31655;48.972;10.686;2023-05-07T08:38:18;1.58;;;1.42;;
45944;SDS011;31655;48.972;10.686;2023-05-07T08:40:44;2.60;;;1.95;;
45944;SDS011;31655;48.972;10.686;2023-05-07T08:43:12;1.90;;;1.60;;
45944;SDS011;31655;48.972;10.686;2023-05-07T08:45:39;2.10;;;1.80;;
45944;SDS011;31655;48.972;10.686;2023-05-07T08:48:06;2.33;;;1.70;;
45944;SDS011;31655;48.972;10.686;2023-05-07T08:50:37;3.75;;;2.50;;
45944;SDS011;31655;48.972;10.686;2023-05-07T08:53:03;2.55;;;1.92;;
45944;SDS011;31655;48.972;10.686;2023-05-07T08:55:29;3.20;;;2.78;;
45944;SDS011;31655;48.972;10.686;2023-05-07T08:57:55;2.50;;;1.90;;
45944;SDS011;31655;48.972;10.686;2023-05-07T09:00:21;4.10;;;2.83;;
45944;SDS011;31655;48.972;10.686;2023-05-07T09:02:46;5.82;;;2.15;;
45944;SDS011;31655;48.972;10.686;2023-05-07T09:05:12;5.78;;;2.05;;
45944;SDS011;31655;48.972;10.686;2023-05-07T09:07:38;4.35;;;1.80;;
45944;SDS011;31655;48.972;10.686;2023-05-07T09:10:04;4.00;;;1.75;;
45944;SDS011;31655;48.972;10.686;2023-05-07T09:12:31;2.53;;;1.60;;
45944;SDS011;31655;48.972;10.686;2023-05-07T09:14:57;2.47;;;1.40;;
45944;SDS011;31655;48.972;10.686;2023-05-07T09:17:24;2.97;;;1.60;;
45944;SDS011;31655;48.972;10.686;2023-05-07T09:19:50;3.10;;;2.17;;
45944;SDS011;31655;48.972;10.686;2023-05-07T09:22:16;3.00;;;2.70;;
45944;SDS011;31655;48.972;10.686;2023-05-07T09:24:51;2.90;;;1.90;;
45944;SDS011;31655;48.972;10.686;2023-05-07T09:29:43;2.20;;;1.60;;
45944;SDS011;31655;48.972;10.686;2023-05-07T09:32:09;5.05;;;2.80;;
45944;SDS011;31655;48.972;10.686;2023-05-07T09:34:35;3.03;;;1.77;;
45944;SDS011;31655;48.972;10.686;2023-05-07T09:37:01;2.67;;;1.90;;
45944;SDS011;31655;48.972;10.686;2023-05-07T09:39:44;4.13;;;2.05;;
45944;SDS011;31655;48.972;10.686;2023-05-07T09:42:10;5.43;;;2.42;;
45944;SDS011;31655;48.972;10.686;2023-05-07T09:44:37;4.22;;;2.30;;
45944;SDS011;31655;48.972;10.686;2023-05-07T09:47:06;3.67;;;2.22;;
45944;SDS011;31655;48.972;10.686;2023-05-07T09:49:36;5.50;;;2.00;;
45944;SDS011;31655;48.972;10.686;2023-05-07T09:52:04;2.92;;;2.08;;
45944;SDS011;31655;48.972;10.686;2023-05-07T09:54:31;1.73;;;1.60;;
45944;SDS011;31655;48.972;10.686;2023-05-07T09:56:57;3.10;;;1.98;;
45944;SDS011;31655;48.972;10.686;2023-05-07T09:59:24;3.28;;;2.47;;
45944;SDS011;31655;48.972;10.686;2023-05-07T10:01:50;3.88;;;1.75;;
45944;SDS011;31655;48.972;10.686;2023-05-07T10:04:21;4.05;;;1.83;;
45944;SDS011;31655;48.972;10.686;2023-05-07T10:06:47;2.92;;;2.03;;
45944;SDS011;31655;48.972;10.686;2023-05-07T10:09:13;2.65;;;1.30;;
45944;SDS011;31655;48.972;10.686;2023-05-07T10:11:40;3.63;;;2.05;;
45944;SDS011;31655;48.972;10.686;2023-05-07T10:14:06;2.92;;;1.77;;
45944;SDS011;31655;48.972;10.686;2023-05-07T10:16:34;2.08;;;1.48;;
45944;SDS011;31655;48.972;10.686;2023-05-07T10:19:03;3.03;;;1.45;;
45944;SDS011;31655;48.972;10.686;2023-05-07T10:21:30;3.85;;;1.52;;
45944;SDS011;31655;48.972;10.686;2023-05-07T10:23:59;2.65;;;1.80;;
45944;SDS011;31655;48.972;10.686;2023-05-07T10:26:31;2.13;;;1.38;;
45944;SDS011;31655;48.972;10.686;2023-05-07T10:28:59;1.70;;;1.60;;
45944;SDS011;31655;48.972;10.686;2023-05-07T10:31:47;3.30;;;1.20;;
45944;SDS011;31655;48.972;10.686;2023-05-07T10:34:36;2.08;;;1.40;;
45944;SDS011;31655;48.972;10.686;2023-05-07T10:37:08;3.35;;;2.08;;
45944;SDS011;31655;48.972;10.686;2023-05-07T10:39:35;2.30;;;1.80;;
45944;SDS011;31655;48.972;10.686;2023-05-07T10:42:19;2.85;;;1.80;;
45944;SDS011;31655;48.972;10.686;2023-05-07T10:44:45;3.47;;;2.38;;
45944;SDS011;31655;48.972;10.686;2023-05-07T10:47:11;3.78;;;2.40;;
45944;SDS011;31655;48.972;10.686;2023-05-07T10:52:16;3.03;;;2.35;;
45944;SDS011;31655;48.972;10.686;2023-05-07T10:54:46;3.25;;;2.17;;
45944;SDS011;31655;48.972;10.686;2023-05-07T10:57:34;6.50;;;2.83;;
45944;SDS011;31655;48.972;10.686;2023-05-07T11:00:02;3.38;;;2.70;;
45944;SDS011;31655;48.972;10.686;2023-05-07T11:05:28;4.38;;;2.88;;
45944;SDS011;31655;48.972;10.686;2023-05-07T11:07:55;5.10;;;3.25;;
45944;SDS011;31655;48.972;10.686;2023-05-07T11:10:39;3.63;;;3.13;;
45944;SDS011;31655;48.972;10.686;2023-05-07T11:16:23;3.83;;;2.38;;
45944;SDS011;31655;48.972;10.686;2023-05-07T11:18:50;3.45;;;2.15;;
45944;SDS011;31655;48.972;10.686;2023-05-07T11:21:36;4.50;;;3.08;;
45944;SDS011;31655;48.972;10.686;2023-05-07T11:24:08;5.10;;;2.75;;
45944;SDS011;31655;48.972;10.686;2023-05-07T11:26:45;5.65;;;2.45;;
45944;SDS011;31655;48.972;10.686;2023-05-07T11:29:18;3.95;;;3.38;;
45944;SDS011;31655;48.972;10.686;2023-05-07T11:31:49;4.57;;;2.65;;
45944;SDS011;31655;48.972;10.686;2023-05-07T11:34:24;5.13;;;2.90;;
45944;SDS011;31655;48.972;10.686;2023-05-07T11:36:51;8.35;;;3.03;;
45944;SDS011;31655;48.972;10.686;2023-05-07T11:41:57;3.10;;;2.70;;
45944;SDS011;31655;48.972;10.686;2023-05-07T11:44:23;3.17;;;2.63;;
45944;SDS011;31655;48.972;10.686;2023-05-07T11:46:49;8.20;;;2.60;;
45944;SDS011;31655;48.972;10.686;2023-05-07T11:49:15;5.00;;;2.38;;
45944;SDS011;31655;48.972;10.686;2023-05-07T11:51:40;2.63;;;2.28;;
45944;SDS011;31655;48.972;10.686;2023-05-07T11:54:10;2.67;;;2.38;;
45944;SDS011;31655;48.972;10.686;2023-05-07T11:56:39;3.85;;;2.28;;
45944;SDS011;31655;48.972;10.686;2023-05-07T11:59:05;2.53;;;2.33;;
45944;SDS011;31655;48.972;10.686;2023-05-07T12:01:31;2.10;;;1.90;;
45944;SDS011;31655;48.972;10.686;2023-05-07T12:03:57;3.25;;;1.80;;
45944;SDS011;31655;48.972;10.686;2023-05-07T12:06:23;4.95;;;2.42;;
45944;SDS011;31655;48.972;10.686;2023-05-07T12:08:49;3.85;;;2.38;;
45944;SDS011;31655;48.972;10.686;2023-05-07T12:11:15;2.17;;;1.98;;
45944;SDS011;31655;48.972;10.686;2023-05-07T12:13:47;2.72;;;2.33;;
45944;SDS011;31655;48.972;10.686;2023-05-07T12:16:13;5.50;;;2.17;;
45944;SDS011;31655;48.972;10.686;2023-05-07T12:18:39;1.98;;;1.63;;
45944;SDS011;31655;48.972;10.686;2023-05-07T12:21:05;3.55;;;1.88;;
45944;SDS011;31655;48.972;10.686;2023-05-07T12:23:33;6.10;;;2.80;;
45944;SDS011;31655;48.972;10.686;2023-05-07T12:25:59;4.43;;;1.95;;
45944;SDS011;31655;48.972;10.686;2023-05-07T12:28:25;2.50;;;1.70;;
45944;SDS011;31655;48.972;10.686;2023-05-07T12:30:52;2.22;;;1.98;;
45944;SDS011;31655;48.972;10.686;2023-05-07T12:33:18;2.10;;;1.90;;
45944;SDS011;31655;48.972;10.686;2023-05-07T12:35:48;4.32;;;2.35;;
45944;SDS011;31655;48.972;10.686;2023-05-07T12:38:15;2.60;;;2.25;;
45944;SDS011;31655;48.972;10.686;2023-05-07T12:40:43;5.85;;;2.33;;
45944;SDS011;31655;48.972;10.686;2023-05-07T12:43:25;6.05;;;2.22;;
45944;SDS011;31655;48.972;10.686;2023-05-07T12:45:54;4.07;;;2.90;;
45944;SDS011;31655;48.972;10.686;2023-05-07T12:48:20;4.43;;;2.15;;
45944;SDS011;31655;48.972;10.686;2023-05-07T12:50:50;3.55;;;2.58;;
45944;SDS011;31655;48.972;10.686;2023-05-07T12:53:16;4.40;;;2.28;;
45944;SDS011;31655;48.972;10.686;2023-05-07T12:55:46;2.42;;;1.63;;
45944;SDS011;31655;48.972;10.686;2023-05-07T12:58:16;2.20;;;2.00;;
45944;SDS011;31655;48.972;10.686;2023-05-07T13:00:44;3.78;;;2.42;;
45944;SDS011;31655;48.972;10.686;2023-05-07T13:03:10;3.03;;;2.63;;
45944;SDS011;31655;48.972;10.686;2023-05-07T13:05:36;3.40;;;3.00;;
45944;SDS011;31655;48.972;10.686;2023-05-07T13:08:02;4.10;;;2.70;;
45944;SDS011;31655;48.972;10.686;2023-05-07T13:10:28;3.95;;;3.00;;
45944;SDS011;31655;48.972;10.686;2023-05-07T13:12:54;4.60;;;2.70;;
45944;SDS011;31655;48.972;10.686;2023-05-07T13:15:20;12.27;;;3.95;;
45944;SDS011;31655;48.972;10.686;2023-05-07T13:17:46;3.92;;;3.30;;
45944;SDS011;31655;48.972;10.686;2023-05-07T13:20:12;2.22;;;2.03;;
45944;SDS011;31655;48.972;10.686;2023-05-07T13:22:39;2.88;;;2.30;;
45944;SDS011;31655;48.972;10.686;2023-05-07T13:25:04;4.88;;;2.70;;
45944;SDS011;31655;48.972;10.686;2023-05-07T13:27:30;4.03;;;2.60;;
45944;SDS011;31655;48.972;10.686;2023-05-07T13:29:56;2.83;;;2.17;;
45944;SDS011;31655;48.972;10.686;2023-05-07T13:32:22;4.85;;;2.25;;
45944;SDS011;31655;48.972;10.686;2023-05-07T13:34:48;4.13;;;2.40;;
45944;SDS011;31655;48.972;10.686;2023-05-07T13:37:14;5.13;;;2.28;;
45944;SDS011;31655;48.972;10.686;2023-05-07T13:39:40;2.42;;;2.00;;
45944;SDS011;31655;48.972;10.686;2023-05-07T13:42:06;3.03;;;2.08;;
45944;SDS011;31655;48.972;10.686;2023-05-07T13:44:32;2.25;;;1.60;;
45944;SDS011;31655;48.972;10.686;2023-05-07T13:46:58;2.33;;;2.13;;
45944;SDS011;31655;48.972;10.686;2023-05-07T13:49:24;4.10;;;3.35;;
45944;SDS011;31655;48.972;10.686;2023-05-07T13:51:50;2.75;;;2.47;;
45944;SDS011;31655;48.972;10.686;2023-05-07T13:54:15;3.83;;;2.85;;
45944;SDS011;31655;48.972;10.686;2023-05-07T13:56:41;3.85;;;2.40;;
45944;SDS011;31655;48.972;10.686;2023-05-07T13:59:07;2.00;;;1.90;;
45944;SDS011;31655;48.972;10.686;2023-05-07T14:01:33;2.65;;;2.30;;
45944;SDS011;31655;48.972;10.686;2023-05-07T14:03:59;6.00;;;3.10;;
45944;SDS011;31655;48.972;10.686;2023-05-07T14:06:25;4.13;;;2.25;;
45944;SDS011;31655;48.972;10.686;2023-05-07T14:08:51;7.55;;;2.20;;
45944;SDS011;31655;48.972;10.686;2023-05-07T14:11:17;2.85;;;2.38;;
45944;SDS011;31655;48.972;10.686;2023-05-07T14:13:43;2.47;;;2.28;;
45944;SDS011;31655;48.972;10.686;2023-05-07T14:16:09;2.60;;;2.40;;
45944;SDS011;31655;48.972;10.686;2023-05-07T14:18:34;3.25;;;2.60;;
45944;SDS011;31655;48.972;10.686;2023-05-07T14:21:02;4.07;;;3.10;;
45944;SDS011;31655;48.972;10.686;2023-05-07T14:23:28;2.38;;;2.17;;
45944;SDS011;31655;48.972;10.686;2023-05-07T14:25:54;8.65;;;3.53;;
45944;SDS011;31655;48.972;10.686;2023-05-07T14:28:22;2.90;;;2.10;;
45944;SDS011;31655;48.972;10.686;2023-05-07T14:30:48;2.75;;;2.40;;
45944;SDS011;31655;48.972;10.686;2023-05-07T14:33:14;4.95;;;2.63;;
45944;SDS011;31655;48.972;10.686;2023-05-07T14:35:39;3.20;;;2.60;;
45944;SDS011;31655;48.972;10.686;2023-05-07T14:38:05;2.80;;;2.60;;
45944;SDS011;31655;48.972;10.686;2023-05-07T14:40:31;4.82;;;2.58;;
45944;SDS011;31655;48.972;10.686;2023-05-07T14:42:56;3.13;;;2.35;;
45944;SDS011;31655;48.972;10.686;2023-05-07T14:45:22;3.97;;;2.47;;